createdAt,value
2023-04-18T00:00:07.759Z,69.71
2023-04-18T00:01:07.723Z,69.68
2023-04-18T00:02:07.780Z,69.79
2023-04-18T00:03:07.854Z,70.03
2023-04-18T00:04:07.939Z,70.64
2023-04-18T00:05:07.802Z,70.64
2023-04-18T00:06:07.691Z,70.53
2023-04-18T00:07:07.662Z,70.53
2023-04-18T00:08:07.657Z,70.33
2023-04-18T00:09:07.810Z,70.53
2023-04-18T00:10:07.620Z,70.03
2023-04-18T00:11:07.629Z,70.84
2023-04-18T00:12:07.607Z,70.53
2023-04-18T00:13:07.628Z,70.87
2023-04-18T00:14:07.620Z,71.08
2023-04-18T00:15:07.564Z,70.67
2023-04-18T00:16:07.556Z,70.67
2023-04-18T00:17:07.659Z,70.47
2023-04-18T00:18:07.563Z,70.47
2023-04-18T00:19:07.564Z,70.26
2023-04-18T00:20:07.505Z,70.87
2023-04-18T00:21:07.513Z,70.98
2023-04-18T00:22:07.620Z,70.98
2023-04-18T00:23:07.482Z,70.47
2023-04-18T00:24:07.472Z,69.95
2023-04-18T00:25:07.456Z,70.06
2023-04-18T00:26:07.457Z,70.87
2023-04-18T00:27:07.439Z,70.70
2023-04-18T00:28:07.418Z,69.89
2023-04-18T00:29:07.416Z,70.26
2023-04-18T00:30:07.406Z,70.26
2023-04-18T00:31:07.433Z,70.91
2023-04-18T00:32:07.382Z,71.01
2023-04-18T00:33:07.372Z,70.67
2023-04-18T00:34:07.366Z,70.60
2023-04-18T00:35:07.400Z,70.70
2023-04-18T00:36:07.347Z,70.87
2023-04-18T00:37:07.320Z,70.60
2023-04-18T00:38:07.357Z,70.60
2023-04-18T00:39:07.299Z,70.50
2023-04-18T00:40:07.298Z,70.50
2023-04-18T00:41:07.271Z,70.50
2023-04-18T00:42:07.275Z,71.01
2023-04-18T00:43:07.258Z,70.64
2023-04-18T00:44:07.235Z,70.64
2023-04-18T00:45:07.234Z,70.94
2023-04-18T00:46:07.275Z,70.43
2023-04-18T00:47:07.208Z,71.15
2023-04-18T00:48:07.290Z,70.64
2023-04-18T00:49:07.212Z,70.84
2023-04-18T00:50:07.166Z,70.94
2023-04-18T00:51:07.178Z,70.64
2023-04-18T00:52:07.154Z,71.04
2023-04-18T00:53:07.137Z,70.84
2023-04-18T00:54:07.158Z,70.73
2023-04-18T00:55:07.133Z,71.04
2023-04-18T00:56:07.108Z,71.15
2023-04-18T00:57:07.107Z,71.25
2023-04-18T00:58:07.093Z,71.15
2023-04-18T00:59:07.058Z,71.45
2023-04-18T01:00:07.070Z,71.35
2023-04-18T01:01:07.055Z,71.56
2023-04-18T01:02:07.088Z,71.25
2023-04-18T01:03:07.117Z,71.25
2023-04-18T01:04:07.194Z,71.39
2023-04-18T01:05:07.001Z,71.45
2023-04-18T01:06:07.004Z,71.08
2023-04-18T01:07:07.000Z,71.28
2023-04-18T01:08:06.972Z,71.18
2023-04-18T01:09:06.954Z,71.28
2023-04-18T01:10:07.091Z,71.18
2023-04-18T01:11:06.936Z,70.97
2023-04-18T01:12:06.950Z,71.18
2023-04-18T01:13:06.912Z,71.59
2023-04-18T01:14:06.891Z,71.18
2023-04-18T01:15:06.874Z,70.87
2023-04-18T01:16:06.968Z,71.18
2023-04-18T01:17:06.861Z,71.48
2023-04-18T01:18:06.857Z,71.59
2023-04-18T01:19:06.864Z,71.59
2023-04-18T01:20:06.822Z,71.69
2023-04-18T01:21:06.805Z,71.62
2023-04-18T01:22:06.811Z,71.01
2023-04-18T01:23:06.787Z,71.72
2023-04-18T01:24:06.780Z,71.90
2023-04-18T01:25:06.772Z,71.72
2023-04-18T01:26:06.773Z,71.52
2023-04-18T01:27:06.775Z,72.03
2023-04-18T01:28:06.767Z,72.03
2023-04-18T01:29:06.752Z,71.62
2023-04-18T01:30:06.713Z,72.14
2023-04-18T01:31:06.705Z,72.03
2023-04-18T01:32:06.712Z,71.72
2023-04-18T01:33:06.719Z,71.72
2023-04-18T01:34:06.674Z,71.76
2023-04-18T01:35:06.661Z,71.62
2023-04-18T01:36:06.669Z,71.62
2023-04-18T01:37:06.653Z,72.24
2023-04-18T01:38:06.616Z,71.55
2023-04-18T01:39:06.616Z,71.55
2023-04-18T01:40:06.596Z,71.42
2023-04-18T01:41:06.590Z,71.66
2023-04-18T01:42:06.892Z,71.97
2023-04-18T01:43:06.560Z,71.86
2023-04-18T01:44:06.550Z,72.17
2023-04-18T01:45:06.535Z,72.38
2023-04-18T01:46:06.548Z,71.45
2023-04-18T01:47:06.523Z,72.06
2023-04-18T01:48:06.506Z,72.20
2023-04-18T01:49:06.489Z,72.06
2023-04-18T01:50:06.490Z,72.10
2023-04-18T01:51:06.480Z,72.06
2023-04-18T01:52:06.468Z,72.31
2023-04-18T01:53:06.451Z,72.20
2023-04-18T01:54:06.467Z,72.20
2023-04-18T01:55:06.426Z,72.20
2023-04-18T01:56:06.409Z,72.41
2023-04-18T01:57:06.423Z,72.20
2023-04-18T01:58:06.420Z,72.31
2023-04-18T01:59:06.372Z,72.31
2023-04-18T02:00:06.433Z,72.20
2023-04-18T02:01:06.417Z,72.20
2023-04-18T02:02:06.547Z,72.31
2023-04-18T02:03:06.464Z,72.41
2023-04-18T02:04:06.352Z,72.24
2023-04-18T02:05:06.335Z,72.55
2023-04-18T02:06:06.297Z,72.51
2023-04-18T02:07:06.316Z,72.00
2023-04-18T02:08:06.291Z,72.41
2023-04-18T02:09:06.272Z,72.41
2023-04-18T02:10:06.256Z,72.51
2023-04-18T02:11:06.248Z,72.41
2023-04-18T02:12:06.258Z,72.44
2023-04-18T02:13:06.242Z,72.55
2023-04-18T02:14:06.246Z,72.75
2023-04-18T02:15:06.195Z,72.34
2023-04-18T02:16:06.255Z,72.44
2023-04-18T02:17:06.182Z,72.75
2023-04-18T02:18:06.246Z,72.34
2023-04-18T02:19:06.155Z,72.55
2023-04-18T02:20:06.136Z,72.55
2023-04-18T02:21:06.124Z,72.55
2023-04-18T02:22:06.132Z,72.85
2023-04-18T02:23:06.131Z,72.65
2023-04-18T02:24:06.091Z,72.55
2023-04-18T02:25:06.088Z,72.89
2023-04-18T02:26:06.070Z,72.99
2023-04-18T02:27:06.069Z,72.89
2023-04-18T02:28:06.046Z,72.44
2023-04-18T02:29:06.047Z,72.78
2023-04-18T02:30:06.069Z,72.99
2023-04-18T02:31:06.021Z,72.89
2023-04-18T02:32:06.057Z,72.68
2023-04-18T02:33:06.023Z,72.68
2023-04-18T02:34:05.975Z,72.68
2023-04-18T02:35:05.979Z,72.68
2023-04-18T02:36:05.955Z,73.30
2023-04-18T02:37:05.995Z,73.19
2023-04-18T02:38:05.929Z,73.30
2023-04-18T02:39:05.932Z,73.40
2023-04-18T02:40:05.917Z,73.19
2023-04-18T02:41:05.910Z,73.64
2023-04-18T02:42:05.923Z,73.44
2023-04-18T02:43:05.874Z,73.44
2023-04-18T02:44:05.864Z,73.64
2023-04-18T02:45:05.847Z,73.44
2023-04-18T02:46:05.926Z,73.44
2023-04-18T02:47:05.848Z,73.78
2023-04-18T02:48:05.836Z,74.36
2023-04-18T02:49:05.800Z,74.50
2023-04-18T02:50:05.817Z,74.19
2023-04-18T02:51:05.778Z,74.08
2023-04-18T02:52:05.801Z,74.50
2023-04-18T02:53:05.776Z,75.12
2023-04-18T02:54:05.754Z,75.01
2023-04-18T02:55:05.734Z,75.73
2023-04-18T02:56:05.749Z,75.77
2023-04-18T02:57:05.725Z,76.04
2023-04-18T02:58:05.700Z,75.67
2023-04-18T02:59:05.725Z,75.97
2023-04-18T03:00:05.683Z,76.28
2023-04-18T03:01:05.676Z,76.59
2023-04-18T03:02:05.748Z,76.11
2023-04-18T03:03:05.814Z,76.07
2023-04-18T03:04:05.633Z,76.11
2023-04-18T03:05:05.825Z,76.21
2023-04-18T03:06:05.623Z,76.11
2023-04-18T03:07:05.598Z,76.11
2023-04-18T03:08:05.600Z,76.32
2023-04-18T03:09:05.597Z,76.11
2023-04-18T03:10:05.572Z,76.11
2023-04-18T03:11:05.567Z,76.21
2023-04-18T03:12:05.555Z,76.93
2023-04-18T03:13:05.553Z,76.42
2023-04-18T03:14:05.533Z,77.04
2023-04-18T03:15:05.517Z,77.55
2023-04-18T03:16:05.555Z,77.28
2023-04-18T03:17:05.500Z,77.59
2023-04-18T03:18:05.569Z,77.18
2023-04-18T03:19:05.459Z,77.90
2023-04-18T03:20:05.463Z,77.59
2023-04-18T03:21:05.434Z,77.69
2023-04-18T03:22:05.443Z,77.90
2023-04-18T03:23:05.449Z,78.00
2023-04-18T03:24:05.408Z,77.22
2023-04-18T03:25:05.390Z,78.04
2023-04-18T03:26:05.382Z,77.73
2023-04-18T03:27:05.368Z,78.00
2023-04-18T03:28:05.381Z,78.45
2023-04-18T03:29:05.359Z,78.55
2023-04-18T03:30:05.336Z,78.24
2023-04-18T03:31:05.354Z,78.55
2023-04-18T03:32:05.329Z,78.66
2023-04-18T03:33:05.326Z,78.55
2023-04-18T03:34:05.327Z,78.55
2023-04-18T03:35:05.293Z,78.45
2023-04-18T03:36:05.270Z,78.76
2023-04-18T03:37:05.270Z,78.66
2023-04-18T03:38:05.270Z,78.66
2023-04-18T03:39:05.231Z,78.55
2023-04-18T03:40:05.237Z,78.66
2023-04-18T03:41:05.217Z,78.38
2023-04-18T03:42:05.213Z,78.66
2023-04-18T03:43:05.198Z,78.66
2023-04-18T03:44:05.194Z,78.66
2023-04-18T03:45:05.173Z,78.59
2023-04-18T03:46:05.181Z,78.34
2023-04-18T03:47:05.162Z,78.55
2023-04-18T03:48:05.200Z,78.66
2023-04-18T03:49:05.120Z,78.66
2023-04-18T03:50:05.160Z,78.66
2023-04-18T03:51:05.102Z,78.86
2023-04-18T03:52:05.090Z,79.21
2023-04-18T03:53:05.097Z,79.00
2023-04-18T03:54:05.065Z,79.27
2023-04-18T03:55:05.073Z,78.76
2023-04-18T03:56:05.072Z,78.69
2023-04-18T03:57:05.045Z,78.34
2023-04-18T03:58:05.046Z,78.66
2023-04-18T03:59:05.052Z,79.07
2023-04-18T04:00:05.013Z,79.07
2023-04-18T04:01:04.984Z,79.00
2023-04-18T04:02:05.141Z,80.10
2023-04-18T04:03:05.140Z,79.93
2023-04-18T04:04:05.025Z,78.97
2023-04-18T04:05:05.003Z,79.93
2023-04-18T04:06:04.971Z,80.04
2023-04-18T04:07:04.918Z,79.79
2023-04-18T04:08:05.045Z,79.11
2023-04-18T04:09:04.934Z,79.52
2023-04-18T04:10:04.907Z,79.27
2023-04-18T04:11:04.899Z,79.41
2023-04-18T04:12:04.877Z,79.52
2023-04-18T04:13:05.088Z,80.00
2023-04-18T04:14:04.842Z,80.04
2023-04-18T04:15:04.837Z,80.00
2023-04-18T04:16:04.852Z,80.14
2023-04-18T04:17:04.816Z,79.93
2023-04-18T04:18:04.984Z,80.34
2023-04-18T04:19:04.789Z,80.34
2023-04-18T04:20:04.779Z,80.62
2023-04-18T04:21:04.769Z,80.24
2023-04-18T04:22:04.782Z,80.24
2023-04-18T04:23:04.799Z,80.34
2023-04-18T04:24:04.738Z,80.82
2023-04-18T04:25:04.730Z,80.55
2023-04-18T04:26:04.721Z,80.51
2023-04-18T04:27:04.709Z,80.14
2023-04-18T04:28:04.690Z,80.00
2023-04-18T04:29:04.692Z,80.10
2023-04-18T04:30:04.668Z,80.72
2023-04-18T04:31:04.660Z,80.41
2023-04-18T04:32:04.707Z,80.82
2023-04-18T04:33:04.674Z,80.41
2023-04-18T04:34:04.608Z,80.30
2023-04-18T04:35:04.599Z,80.82
2023-04-18T04:36:04.584Z,80.72
2023-04-18T04:37:04.581Z,80.30
2023-04-18T04:38:04.610Z,80.41
2023-04-18T04:39:04.576Z,80.86
2023-04-18T04:40:04.551Z,80.72
2023-04-18T04:41:04.550Z,80.93
2023-04-18T04:42:04.711Z,80.82
2023-04-18T04:43:04.529Z,80.62
2023-04-18T04:44:04.537Z,80.51
2023-04-18T04:45:04.523Z,80.62
2023-04-18T04:46:04.609Z,80.82
2023-04-18T04:47:04.483Z,80.93
2023-04-18T04:48:04.529Z,80.72
2023-04-18T04:49:04.444Z,80.72
2023-04-18T04:50:04.460Z,80.62
2023-04-18T04:51:04.436Z,81.13
2023-04-18T04:52:04.429Z,81.03
2023-04-18T04:53:04.425Z,81.85
2023-04-18T04:54:04.416Z,81.51
2023-04-18T04:55:04.404Z,81.20
2023-04-18T04:56:04.358Z,81.51
2023-04-18T04:57:04.375Z,80.79
2023-04-18T04:58:04.344Z,81.71
2023-04-18T04:59:04.370Z,81.51
2023-04-18T05:00:04.326Z,81.20
2023-04-18T05:01:04.402Z,81.20
2023-04-18T05:02:04.437Z,80.47
2023-04-18T05:03:04.526Z,80.68
2023-04-18T05:04:04.369Z,81.37
2023-04-18T05:05:04.275Z,81.37
2023-04-18T05:06:04.246Z,81.26
2023-04-18T05:07:04.240Z,81.20
2023-04-18T05:08:04.239Z,81.37
2023-04-18T05:09:04.280Z,81.26
2023-04-18T05:10:04.243Z,81.57
2023-04-18T05:11:04.200Z,81.26
2023-04-18T05:12:04.180Z,80.95
2023-04-18T05:13:04.187Z,80.95
2023-04-18T05:14:04.166Z,81.53
2023-04-18T05:15:04.148Z,81.37
2023-04-18T05:16:04.174Z,81.84
2023-04-18T05:17:04.252Z,81.33
2023-04-18T05:18:04.173Z,81.33
2023-04-18T05:19:04.126Z,81.09
2023-04-18T05:20:04.096Z,81.43
2023-04-18T05:21:04.106Z,81.19
2023-04-18T05:22:04.074Z,80.36
2023-04-18T05:23:04.073Z,80.98
2023-04-18T05:24:04.068Z,80.47
2023-04-18T05:25:04.030Z,80.43
2023-04-18T05:26:04.053Z,80.22
2023-04-18T05:27:04.029Z,79.71
2023-04-18T05:28:04.002Z,80.12
2023-04-18T05:29:04.016Z,79.98
2023-04-18T05:30:03.974Z,79.77
2023-04-18T05:31:04.037Z,79.77
2023-04-18T05:32:03.949Z,78.92
2023-04-18T05:33:04.009Z,78.13
2023-04-18T05:34:03.954Z,78.30
2023-04-18T05:35:03.936Z,77.95
2023-04-18T05:36:03.902Z,77.75
2023-04-18T05:37:03.900Z,77.44
2023-04-18T05:38:03.885Z,77.65
2023-04-18T05:39:03.890Z,77.61
2023-04-18T05:40:03.875Z,76.68
2023-04-18T05:41:03.853Z,76.48
2023-04-18T05:42:03.880Z,76.79
2023-04-18T05:43:03.873Z,77.00
2023-04-18T05:44:05.603Z,77.06
2023-04-18T05:45:03.835Z,76.75
2023-04-18T05:46:03.811Z,77.58
2023-04-18T05:47:03.800Z,76.14
2023-04-18T05:48:03.877Z,75.79
2023-04-18T05:49:03.760Z,75.79
2023-04-18T05:50:03.774Z,75.69
2023-04-18T05:51:03.742Z,75.08
2023-04-18T05:52:03.761Z,74.26
2023-04-18T05:53:03.754Z,75.96
2023-04-18T05:54:03.738Z,74.63
2023-04-18T05:55:03.711Z,74.84
2023-04-18T05:56:03.677Z,74.49
2023-04-18T05:57:04.760Z,74.43
2023-04-18T05:58:03.821Z,73.78
2023-04-18T05:59:03.699Z,74.19
2023-04-18T06:00:03.636Z,73.68
2023-04-18T06:01:03.642Z,73.33
2023-04-18T06:02:03.654Z,73.23
2023-04-18T06:03:03.820Z,73.54
2023-04-18T06:04:03.767Z,72.82
2023-04-18T06:05:03.837Z,72.92
2023-04-18T06:06:03.610Z,72.92
2023-04-18T06:07:03.559Z,73.33
2023-04-18T06:08:03.563Z,72.82
2023-04-18T06:09:03.587Z,73.03
2023-04-18T06:10:03.536Z,73.10
2023-04-18T06:11:03.513Z,73.50
2023-04-18T06:12:03.503Z,72.17
2023-04-18T06:13:03.490Z,71.86
2023-04-18T06:14:03.540Z,72.04
2023-04-18T06:15:03.490Z,72.38
2023-04-18T06:16:03.484Z,72.34
2023-04-18T06:17:03.448Z,72.24
2023-04-18T06:18:03.468Z,70.40
2023-04-18T06:19:03.445Z,70.40
2023-04-18T06:20:03.427Z,70.91
2023-04-18T06:21:03.414Z,71.53
2023-04-18T06:22:03.394Z,71.73
2023-04-18T06:23:03.372Z,71.32
2023-04-18T06:24:03.381Z,71.80
2023-04-18T06:25:03.388Z,71.70
2023-04-18T06:26:03.356Z,70.88
2023-04-18T06:27:03.342Z,70.64
2023-04-18T06:28:03.329Z,70.30
2023-04-18T06:29:03.309Z,70.51
2023-04-18T06:30:03.630Z,69.79
2023-04-18T06:31:03.286Z,68.97
2023-04-18T06:32:03.328Z,68.77
2023-04-18T06:33:03.320Z,68.97
2023-04-18T06:34:03.257Z,68.74
2023-04-18T06:35:03.286Z,68.87
2023-04-18T06:36:03.250Z,68.94
2023-04-18T06:37:03.240Z,69.04
2023-04-18T06:38:03.216Z,68.02
2023-04-18T06:39:03.192Z,67.71
2023-04-18T06:40:03.212Z,67.41
2023-04-18T06:41:03.186Z,67.21
2023-04-18T06:42:03.168Z,67.99
2023-04-18T06:43:03.161Z,67.38
2023-04-18T06:44:04.618Z,66.42
2023-04-18T06:45:03.129Z,66.74
2023-04-18T06:46:03.396Z,66.09
2023-04-18T06:47:03.115Z,66.09
2023-04-18T06:48:03.128Z,65.99
2023-04-18T06:49:03.961Z,65.89
2023-04-18T06:50:03.180Z,65.48
2023-04-18T06:51:03.077Z,65.78
2023-04-18T06:52:03.042Z,65.25
2023-04-18T06:53:03.031Z,64.73
2023-04-18T06:54:03.025Z,64.22
2023-04-18T06:55:03.044Z,65.25
2023-04-18T06:56:02.999Z,64.60
2023-04-18T06:57:03.006Z,63.61
2023-04-18T06:58:02.986Z,64.12
2023-04-18T06:59:02.969Z,64.53
2023-04-18T07:00:03.007Z,64.06
2023-04-18T07:01:02.982Z,64.37
2023-04-18T07:02:03.031Z,63.56
2023-04-18T07:03:03.214Z,63.56
2023-04-18T07:04:03.000Z,63.04
2023-04-18T07:05:02.921Z,63.73
2023-04-18T07:06:02.890Z,63.22
2023-04-18T07:07:02.873Z,63.22
2023-04-18T07:08:02.876Z,62.98
2023-04-18T07:09:02.874Z,62.78
2023-04-18T07:10:02.871Z,62.27
2023-04-18T07:11:02.828Z,61.25
2023-04-18T07:12:02.809Z,61.18
2023-04-18T07:13:02.827Z,61.31
2023-04-18T07:14:02.792Z,62.23
2023-04-18T07:15:02.797Z,62.39
2023-04-18T07:16:02.764Z,63.18
2023-04-18T07:17:02.790Z,63.18
2023-04-18T07:18:02.794Z,63.68
2023-04-18T07:19:02.735Z,63.89
2023-04-18T07:20:02.762Z,63.38
2023-04-18T07:21:02.731Z,62.94
2023-04-18T07:22:02.708Z,62.84
2023-04-18T07:23:02.703Z,63.53
2023-04-18T07:24:02.674Z,61.69
2023-04-18T07:25:02.698Z,62.51
2023-04-18T07:26:02.653Z,62.10
2023-04-18T07:27:02.639Z,61.49
2023-04-18T07:28:02.629Z,61.99
2023-04-18T07:29:02.636Z,61.72
2023-04-18T07:30:02.644Z,62.05
2023-04-18T07:31:02.639Z,63.18
2023-04-18T07:32:02.594Z,62.66
2023-04-18T07:33:02.618Z,63.28
2023-04-18T07:34:02.581Z,63.18
2023-04-18T07:35:02.573Z,63.56
2023-04-18T07:36:02.575Z,62.94
2023-04-18T07:37:02.554Z,63.24
2023-04-18T07:38:02.553Z,62.30
2023-04-18T07:39:02.514Z,62.51
2023-04-18T07:40:02.512Z,62.30
2023-04-18T07:41:02.492Z,62.10
2023-04-18T07:42:02.514Z,62.92
2023-04-18T07:43:02.460Z,62.07
2023-04-18T07:44:02.451Z,61.87
2023-04-18T07:45:02.444Z,61.94
2023-04-18T07:46:02.439Z,61.56
2023-04-18T07:47:02.434Z,61.66
2023-04-18T07:48:02.559Z,61.25
2023-04-18T07:49:02.411Z,61.52
2023-04-18T07:50:02.420Z,62.46
2023-04-18T07:51:02.388Z,63.07
2023-04-18T07:52:02.388Z,63.79
2023-04-18T07:53:02.363Z,63.45
2023-04-18T07:54:02.382Z,63.65
2023-04-18T07:55:02.340Z,63.01
2023-04-18T07:56:02.312Z,63.01
2023-04-18T07:57:02.304Z,62.68
2023-04-18T07:58:02.308Z,62.17
2023-04-18T07:59:02.366Z,61.87
2023-04-18T08:00:02.312Z,61.99
2023-04-18T08:01:02.257Z,62.33
2023-04-18T08:02:02.296Z,62.97
2023-04-18T08:03:02.388Z,64.22
2023-04-18T08:04:02.533Z,64.12
2023-04-18T08:05:02.324Z,64.43
2023-04-18T08:06:02.220Z,64.70
2023-04-18T08:07:02.187Z,64.40
2023-04-18T08:08:02.181Z,64.70
2023-04-18T08:09:02.163Z,64.81
2023-04-18T08:10:02.165Z,64.26
2023-04-18T08:11:02.171Z,65.19
2023-04-18T08:12:02.165Z,64.14
2023-04-18T08:13:02.118Z,64.54
2023-04-18T08:14:02.109Z,63.62
2023-04-18T08:15:02.110Z,63.22
2023-04-18T08:16:02.156Z,63.70
2023-04-18T08:17:02.104Z,63.57
2023-04-18T08:18:02.133Z,63.13
2023-04-18T08:19:02.067Z,62.79
2023-04-18T08:20:02.051Z,62.56
2023-04-18T08:21:02.058Z,60.81
2023-04-18T08:22:02.033Z,61.11
2023-04-18T08:23:07.887Z,59.77
2023-04-18T08:24:03.000Z,59.77
2023-04-18T08:25:05.360Z,60.07
2023-04-18T08:26:02.006Z,59.94
2023-04-18T08:27:01.983Z,60.27
2023-04-18T08:28:01.945Z,59.94
2023-04-18T08:29:01.940Z,59.63
2023-04-18T08:30:02.098Z,59.61
2023-04-18T08:31:01.941Z,58.59
2023-04-18T08:32:02.006Z,58.72
2023-04-18T08:33:02.005Z,58.92
2023-04-18T08:34:04.432Z,59.50
2023-04-18T08:35:01.886Z,58.39
2023-04-18T08:36:01.907Z,58.59
2023-04-18T08:37:01.864Z,58.11
2023-04-18T08:38:02.165Z,58.42
2023-04-18T08:39:01.822Z,59.26
2023-04-18T08:40:01.821Z,59.86
2023-04-18T08:41:01.832Z,60.27
2023-04-18T08:42:01.820Z,59.59
2023-04-18T08:43:01.806Z,59.89
2023-04-18T08:44:01.865Z,60.63
2023-04-18T08:45:01.783Z,60.83
2023-04-18T08:46:01.857Z,61.20
2023-04-18T08:47:01.894Z,62.32
2023-04-18T08:48:01.844Z,61.94
2023-04-18T08:49:01.736Z,62.78
2023-04-18T08:50:01.776Z,62.68
2023-04-18T08:51:01.731Z,62.61
2023-04-18T08:52:01.676Z,62.81
2023-04-18T08:53:01.698Z,63.76
2023-04-18T08:54:01.688Z,63.93
2023-04-18T08:55:01.674Z,63.76
2023-04-18T08:56:01.700Z,64.06
2023-04-18T08:57:01.614Z,63.76
2023-04-18T08:58:01.624Z,63.65
2023-04-18T08:59:01.608Z,64.57
2023-04-18T09:00:01.676Z,64.70
2023-04-18T09:01:01.673Z,64.87
2023-04-18T09:02:01.703Z,64.20
2023-04-18T09:03:01.670Z,65.11
2023-04-18T09:04:01.618Z,64.81
2023-04-18T09:05:01.524Z,64.98
2023-04-18T09:06:01.561Z,65.01
2023-04-18T09:07:01.531Z,65.19
2023-04-18T09:08:01.504Z,63.96
2023-04-18T09:09:01.530Z,63.93
2023-04-18T09:10:01.660Z,63.24
2023-04-18T09:11:01.496Z,64.70
2023-04-18T09:12:01.490Z,65.39
2023-04-18T09:13:01.443Z,65.39
2023-04-18T09:14:01.478Z,64.26
2023-04-18T09:15:01.423Z,64.47
2023-04-18T09:16:01.410Z,64.57
2023-04-18T09:17:01.464Z,64.87
2023-04-18T09:18:01.399Z,64.26
2023-04-18T09:19:01.364Z,64.57
2023-04-18T09:20:01.484Z,65.49
2023-04-18T09:21:01.357Z,64.67
2023-04-18T09:22:01.380Z,64.78
2023-04-18T09:23:01.319Z,65.28
2023-04-18T09:24:01.322Z,64.47
2023-04-18T09:25:01.315Z,64.90
2023-04-18T09:26:01.488Z,64.26
2023-04-18T09:27:01.271Z,64.98
2023-04-18T09:28:01.411Z,65.39
2023-04-18T09:29:01.261Z,64.57
2023-04-18T09:30:01.270Z,64.47
2023-04-18T09:31:01.286Z,64.87
2023-04-18T09:32:01.453Z,65.08
2023-04-18T09:33:01.264Z,64.64
2023-04-18T09:34:01.215Z,64.75
2023-04-18T09:35:03.429Z,64.54
2023-04-18T09:36:01.207Z,65.46
2023-04-18T09:37:01.188Z,64.20
2023-04-18T09:38:01.156Z,63.70
2023-04-18T09:39:01.156Z,64.28
2023-04-18T09:40:01.128Z,63.94
2023-04-18T09:41:01.155Z,62.18
2023-04-18T09:42:01.141Z,62.18
2023-04-18T09:43:01.098Z,63.00
2023-04-18T09:44:01.098Z,61.78
2023-04-18T09:45:01.074Z,61.27
2023-04-18T09:46:01.193Z,62.08
2023-04-18T09:47:01.070Z,60.97
2023-04-18T09:48:01.098Z,61.60
2023-04-18T09:49:01.030Z,61.83
2023-04-18T09:50:01.033Z,62.14
2023-04-18T09:51:01.022Z,62.78
2023-04-18T09:52:01.007Z,62.96
2023-04-18T09:53:00.986Z,62.58
2023-04-18T09:54:00.999Z,63.19
2023-04-18T09:55:00.972Z,63.36
2023-04-18T09:56:00.990Z,63.94
2023-04-18T09:57:00.947Z,61.75
2023-04-18T09:58:01.032Z,60.74
2023-04-18T09:59:00.928Z,59.86
2023-04-18T10:00:00.930Z,58.42
2023-04-18T10:01:00.898Z,58.56
2023-04-18T10:02:00.965Z,58.03
2023-04-18T10:03:00.962Z,57.42
2023-04-18T10:04:00.979Z,57.90
2023-04-18T10:05:00.938Z,56.48
2023-04-18T10:06:00.878Z,56.41
2023-04-18T10:07:00.837Z,57.93
2023-04-18T10:08:00.823Z,56.34
2023-04-18T10:09:00.812Z,57.45
2023-04-18T10:10:00.826Z,57.48
2023-04-18T10:11:00.790Z,57.64
2023-04-18T10:12:00.763Z,58.04
2023-04-18T10:13:00.765Z,58.54
2023-04-18T10:14:00.780Z,58.04
2023-04-18T10:15:00.725Z,59.84
2023-04-18T10:16:00.773Z,57.78
2023-04-18T10:17:00.704Z,58.39
2023-04-18T10:18:05.049Z,58.80
2023-04-18T10:19:01.688Z,58.29
2023-04-18T10:20:00.763Z,57.88
2023-04-18T10:21:00.681Z,58.22
2023-04-18T10:22:00.663Z,58.76
2023-04-18T10:23:00.648Z,58.64
2023-04-18T10:24:00.643Z,58.00
2023-04-18T10:25:00.619Z,57.34
2023-04-18T10:26:00.678Z,56.78
2023-04-18T10:27:00.605Z,55.94
2023-04-18T10:28:00.593Z,56.02
2023-04-18T10:29:00.562Z,54.81
2023-04-18T10:30:00.602Z,55.09
2023-04-18T10:31:00.582Z,54.81
2023-04-18T10:32:00.616Z,55.01
2023-04-18T10:33:00.544Z,54.79
2023-04-18T10:35:00.510Z,54.94
2023-04-18T10:36:00.552Z,55.54
2023-04-18T10:37:00.492Z,55.65
2023-04-18T10:38:00.497Z,56.05
2023-04-18T10:39:00.469Z,55.11
2023-04-18T10:40:00.482Z,55.49
2023-04-18T10:41:00.456Z,55.04
2023-04-18T10:42:00.431Z,55.54
2023-04-18T10:43:00.429Z,53.17
2023-04-18T10:44:00.404Z,52.97
2023-04-18T10:45:00.398Z,52.49
2023-04-18T10:46:00.406Z,53.45
2023-04-18T10:47:00.410Z,53.80
2023-04-18T10:48:00.418Z,55.62
2023-04-18T10:49:00.345Z,54.74
2023-04-18T10:50:00.352Z,56.38
2023-04-18T10:51:00.345Z,56.40
2023-04-18T10:52:00.351Z,57.11
2023-04-18T10:53:00.320Z,57.24
2023-04-18T10:54:00.308Z,57.90
2023-04-18T10:55:00.301Z,57.70
2023-04-18T10:56:00.290Z,59.14
2023-04-18T10:57:00.253Z,58.87
2023-04-18T10:58:00.251Z,59.61
2023-04-18T10:59:00.251Z,60.62
2023-04-18T11:00:00.231Z,60.59
2023-04-18T11:01:00.287Z,60.79
2023-04-18T11:02:00.420Z,60.28
2023-04-18T11:03:00.461Z,60.69
2023-04-18T11:04:00.432Z,59.55
2023-04-18T11:05:00.991Z,59.68
2023-04-18T11:06:00.182Z,59.61
2023-04-18T11:07:00.147Z,61.29
2023-04-18T11:08:00.139Z,62.30
2023-04-18T11:09:00.137Z,61.93
2023-04-18T11:10:00.171Z,62.63
2023-04-18T11:11:00.102Z,62.02
2023-04-18T11:12:00.126Z,63.24
2023-04-18T11:13:00.105Z,62.53
2023-04-18T11:14:00.088Z,63.95
2023-04-18T11:15:00.133Z,63.55
2023-04-18T11:16:00.047Z,62.91
2023-04-18T11:17:00.109Z,62.71
2023-04-18T11:18:00.122Z,62.81
2023-04-18T11:19:00.013Z,62.68
2023-04-18T11:20:00.030Z,62.17
2023-04-18T11:20:59.976Z,62.48
2023-04-18T11:21:59.981Z,62.27
2023-04-18T11:22:59.966Z,62.07
2023-04-18T11:23:59.960Z,61.97
2023-04-18T11:24:59.943Z,62.07
2023-04-18T11:25:59.959Z,62.37
2023-04-18T11:26:59.924Z,62.07
2023-04-18T11:27:59.947Z,62.40
2023-04-18T11:28:59.903Z,62.78
2023-04-18T11:29:59.880Z,62.57
2023-04-18T11:30:59.902Z,63.29
2023-04-18T11:31:59.957Z,62.68
2023-04-18T11:32:59.980Z,63.08
2023-04-18T11:33:59.878Z,62.78
2023-04-18T11:34:59.827Z,62.14
2023-04-18T11:35:59.949Z,61.97
2023-04-18T11:36:59.820Z,62.17
2023-04-18T11:37:59.812Z,62.37
2023-04-18T11:38:59.815Z,62.27
2023-04-18T11:39:59.768Z,62.85
2023-04-18T11:40:59.754Z,63.18
2023-04-18T11:41:59.770Z,62.54
2023-04-18T11:42:59.739Z,63.35
2023-04-18T11:43:59.761Z,63.12
2023-04-18T11:44:59.733Z,61.98
2023-04-18T11:45:59.805Z,60.77
2023-04-18T11:46:59.711Z,60.63
2023-04-18T11:47:59.745Z,59.92
2023-04-18T11:48:59.668Z,60.84
2023-04-18T11:49:59.727Z,61.35
2023-04-18T11:50:59.673Z,60.66
2023-04-18T11:51:59.655Z,61.07
2023-04-18T11:52:59.620Z,60.97
2023-04-18T11:53:59.628Z,61.10
2023-04-18T11:54:59.608Z,61.80
2023-04-18T11:55:59.620Z,62.01
2023-04-18T11:56:59.573Z,61.94
2023-04-18T11:57:59.567Z,62.48
2023-04-18T11:58:59.553Z,62.91
2023-04-18T11:59:59.558Z,63.52
2023-04-18T12:00:59.554Z,63.92
2023-04-18T12:01:59.549Z,63.92
2023-04-18T12:02:59.846Z,63.52
2023-04-18T12:03:59.785Z,63.32
2023-04-18T12:04:59.763Z,63.32
2023-04-18T12:05:59.857Z,63.32
2023-04-18T12:06:59.468Z,63.62
2023-04-18T12:07:59.466Z,64.03
2023-04-18T12:08:59.455Z,63.72
2023-04-18T12:09:59.441Z,63.39
2023-04-18T12:10:59.441Z,62.98
2023-04-18T12:11:59.450Z,62.71
2023-04-18T12:12:59.407Z,63.08
2023-04-18T12:13:59.391Z,63.49
2023-04-18T12:14:59.372Z,63.59
2023-04-18T12:15:59.491Z,63.39
2023-04-18T12:16:59.360Z,63.15
2023-04-18T12:17:59.449Z,63.35
2023-04-18T12:18:59.328Z,62.92
2023-04-18T12:19:59.332Z,61.71
2023-04-18T12:20:59.327Z,61.91
2023-04-18T12:21:59.438Z,62.21
2023-04-18T12:22:59.301Z,61.71
2023-04-18T12:23:59.289Z,61.83
2023-04-18T12:24:59.276Z,62.04
2023-04-18T12:25:59.287Z,62.54
2023-04-18T12:26:59.253Z,62.14
2023-04-18T12:27:59.231Z,63.12
2023-04-18T12:28:59.214Z,61.91
2023-04-18T12:29:59.219Z,61.91
2023-04-18T12:30:59.369Z,61.98
2023-04-18T12:31:59.329Z,61.44
2023-04-18T12:32:59.280Z,60.81
2023-04-18T12:33:59.160Z,60.27
2023-04-18T12:34:59.177Z,59.67
2023-04-18T12:35:59.154Z,59.47
2023-04-18T12:36:59.134Z,60.48
2023-04-18T12:37:59.258Z,60.55
2023-04-18T12:38:59.123Z,59.36
2023-04-18T12:39:59.090Z,59.44
2023-04-18T12:40:59.132Z,59.44
2023-04-18T12:41:59.081Z,59.84
2023-04-18T12:42:59.761Z,60.14
2023-04-18T12:43:59.050Z,59.94
2023-04-18T12:44:59.040Z,60.35
2023-04-18T12:45:59.033Z,59.47
2023-04-18T12:46:59.044Z,59.70
2023-04-18T12:47:59.069Z,59.19
2023-04-18T12:48:59.005Z,60.30
2023-04-18T12:49:58.987Z,60.13
2023-04-18T12:50:58.971Z,60.41
2023-04-18T12:51:58.952Z,60.03
2023-04-18T12:52:58.946Z,60.43